Flight Track Log - Related Links

Times and Time Zones

All times are in EDT time to prevent confusion due to time zone crossing. See the DAL2069 flight status page for this flight to view local times or setup timezone preferences in your user account.

Time Position Orientation Groundspeed Altitude Reporting Facility
EDT Latitude Longitude Course Direction KTS MPH feet Rate Location/Type
Sun 10:28:30 AM 33.6167 -84.3500 168° South 219 252 3,500  Level Atlanta TRACON
Sun 10:29:30 AM 33.5833 -84.2833 121° Southeast 284 327 6,400 2,382 Climbing Atlanta TRACON
Sun 10:30:00 AM 33.3924 -84.2667 180° South  Level FlightAware Approximate
Sun 10:31:00 AM 33.2807 -84.2409 168° South  Level FlightAware Approximate
Sun 10:31:54 AM 33.3911 -84.2803 179° South 288 331 11,600  Level Atlanta Center
Sun 10:32:00 AM 33.1692 -84.2131 168° South  Level FlightAware Approximate
Sun 10:32:54 AM 33.2953 -84.2550 168° South 333 383 14,000  Level Atlanta Center
Sun 10:33:00 AM 33.0577 -84.1852 168° South  Level FlightAware Approximate
Sun 10:33:54 AM 33.1908 -84.2275 168° South 365 420 16,800  Level Atlanta Center
Sun 10:34:54 AM 33.0844 -84.1975 167° South 384 442 19,000 2,100 Climbing Atlanta Center
Sun 10:35:54 AM 32.9781 -84.1675 167° South 395 455 21,000 1,900 Climbing Atlanta Center
Sun 10:36:54 AM 32.8611 -84.1206 161° South 418 481 22,800 1,850 Climbing Atlanta Center
Sun 10:37:54 AM 32.7444 -84.0686 159° South 435 501 24,700 1,750 Climbing Atlanta Center
Sun 10:38:54 AM 32.6233 -84.0192 161° South 452 520 26,300 1,600 Climbing Atlanta Center
Sun 10:39:54 AM 32.5000 -83.9697 161° South 457 526 27,900 1,650 Climbing Atlanta Center
Sun 10:40:54 AM 32.3728 -83.9183 161° South 467 537 29,600 1,714 Climbing Atlanta Center
Sun 10:42:28 AM 32.1817 -83.8400 161° South 461 531 32,300 1,325 Climbing Jacksonville Center
Sun 10:43:28 AM 32.0569 -83.7897 161° South 466 536 33,000 350 Climbing Jacksonville Center
Sun 10:44:28 AM 31.9486 -83.7422 160° South 467 537 33,000 -50 Level Jacksonville Center
Sun 10:45:28 AM 31.8217 -83.6847 159° South 467 537 32,900 -350 Descending Jacksonville Center
Sun 10:46:28 AM 31.6989 -83.6228 157° South 478 550 32,300 50 Descending Jacksonville Center
Sun 10:47:28 AM 31.5803 -83.5411 150° Southeast 485 558 33,000 -2,100 Climbing Jacksonville Center
Sun 10:48:28 AM 31.4658 -83.4625 150° Southeast 485 558 28,100 -3,000 Descending Jacksonville Center
Sun 10:49:28 AM 31.3492 -83.3792 149° Southeast 485 558 27,000 -550 Descending Jacksonville Center
Sun 10:50:28 AM 31.2306 -83.3008 151° Southeast 485 558 27,000  Level Jacksonville Center
Sun 10:51:28 AM 31.1139 -83.2203 149° Southeast 485 558 27,000 -400 Level Jacksonville Center
Sun 10:52:28 AM 30.9969 -83.1422 150° Southeast 485 558 26,200 -1,000 Descending Jacksonville Center
Sun 10:53:28 AM 30.8781 -83.0619 150° Southeast 485 558 25,000 -600 Descending Jacksonville Center
Sun 10:54:28 AM 30.7656 -82.9819 149° Southeast 479 551 25,000 -50 Level Jacksonville Center
Sun 10:55:28 AM 30.6319 -82.8975 151° Southeast 486 559 24,900  Descending Jacksonville Center
Sun 10:56:28 AM 30.5233 -82.8444 157° South 480 552 25,000  Climbing Jacksonville Center
Sun 10:57:28 AM 30.3981 -82.7939 161° South 480 552 24,900 -50 Descending Jacksonville Center
Sun 10:58:28 AM 30.2831 -82.7458 160° South 462 532 24,900 50 Level Jacksonville Center
Sun 10:59:28 AM 30.1828 -82.6811 151° Southeast 432 497 25,000 50 Climbing Jacksonville Center
Sun 11:00:28 AM 30.0867 -82.5806 138° Southeast 417 480 25,000 -50 Level Jacksonville Center
Sun 11:01:28 AM 30.0133 -82.4944 135° Southeast 422 486 24,900 -50 Descending Jacksonville Center
Sun 11:02:28 AM 29.9150 -82.4253 149° Southeast 422 486 24,900 50 Level Jacksonville Center
Sun 11:03:28 AM 29.7978 -82.3661 156° South 417 480 25,000 -700 Climbing Jacksonville Center
Sun 11:04:28 AM 29.6911 -82.3164 158° South 412 474 23,500 -1,550 Descending Jacksonville Center
Sun 11:05:28 AM 29.5761 -82.2622 158° South 426 490 21,900 -1,500 Descending Jacksonville Center
Sun 11:06:28 AM 29.4608 -82.2081 158° South 438 504 20,500 -1,150 Descending Jacksonville Center
Sun 11:07:28 AM 29.3478 -82.1539 157° South 444 511 19,600 -1,650 Descending Jacksonville Center
Sun 11:08:28 AM 29.2369 -82.1000 157° South 437 503 17,200 -2,300 Descending Jacksonville Center
Sun 11:09:28 AM 29.1322 -82.0511 158° South 426 490 15,000 -2,350 Descending Jacksonville Center
Sun 11:10:28 AM 29.0422 -82.0092 158° South 389 448 12,500 -1,800 Descending Jacksonville Center
Sun 11:11:28 AM 28.9647 -81.9717 157° South 344 396 11,400 -800 Descending Jacksonville Center
Sun 11:12:28 AM 28.8914 -81.9369 157° South 305 351 10,900 -200 Descending Jacksonville Center
Sun 11:13:28 AM 28.8408 -81.8614 127° Southeast 288 331 11,000 -300 Climbing Jacksonville Center
Sun 11:14:28 AM 28.8025 -81.7767 117° Southeast 283 326 10,300 -750 Descending Jacksonville Center
Sun 11:15:28 AM 28.7911 -81.6892 98° East 268 308 9,500 -700 Descending Jacksonville Center
Sun 11:16:28 AM 28.7883 -81.6086 92° East 261 300 8,900 -694 Descending Jacksonville Center
Sun 11:17:29 AM 28.7833 -81.5333 94° East 232 267 8,100 -1,190 Descending Orlando TRACON
Sun 11:18:29 AM 28.7833 -81.4667 90° East 217 250 6,500 -1,650 Descending Orlando TRACON
Sun 11:19:29 AM 28.7333 -81.4167 139° Southeast 215 247 4,800 -1,250 Descending Orlando TRACON
Sun 11:20:29 AM 28.6833 -81.3667 139° Southeast 210 242 4,000 -409 Descending Orlando TRACON
Sun 11:21:41 AM 28.6500 -81.3333 139° Southeast 164 189 3,900 -83 Descending Orlando TRACON

Login

Don't have an account? Register now (free) for customized features, flight alerts, and more!